Time;durP1;ratioP1;P1;durP2;ratioP2;P2;SDS_P1;SDS_P2;PMS_P1;PMS_P2;Temp;Humidity;BMP_temperature;BMP_pressure;BME280_temperature;BME280_humidity;BME280_pressure;Samples;Min_cycle;Max_cycle;Signal;HPM_P1;HPM_P2
2022/03/20 00:00:40;;;;;;;9.77;3.50;;;;;;;5.03;73.91;103410.09;5074625;28;20071;-66
2022/03/20 00:03:12;;;;;;;11.10;3.50;;;;;;;4.98;74.32;103411.88;5074940;28;20048;-66
2022/03/20 00:05:42;;;;;;;9.65;3.70;;;;;;;4.94;73.94;103400.56;5073590;28;20223;-66
2022/03/20 00:08:11;;;;;;;9.07;3.67;;;;;;;4.91;73.84;103405.78;5074385;28;20056;-66
2022/03/20 00:10:42;;;;;;;12.10;4.10;;;;;;;4.88;74.56;103395.34;5073030;28;20048;-66
2022/03/20 00:13:16;;;;;;;8.90;3.85;;;;;;;4.91;74.38;103395.38;5074289;28;20060;-66
2022/03/20 00:15:48;;;;;;;8.38;3.55;;;;;;;4.86;75.12;103387.53;5074168;28;20181;-66
2022/03/20 00:18:20;;;;;;;8.60;3.55;;;;;;;4.82;75.16;103390.16;5074015;28;20044;-66
2022/03/20 00:20:50;;;;;;;9.83;3.83;;;;;;;4.78;75.46;103381.44;5074239;28;20043;-66
2022/03/20 00:23:19;;;;;;;10.20;4.10;;;;;;;4.78;75.66;103385.81;5073906;28;20040;-66
2022/03/20 00:25:48;;;;;;;9.10;3.55;;;;;;;4.79;75.90;103385.78;5074137;28;20049;-66
2022/03/20 00:28:20;;;;;;;9.00;4.25;;;;;;;4.77;75.84;103371.88;5073830;28;20063;-67
2022/03/20 00:30:48;;;;;;;8.98;3.90;;;;;;;4.68;76.17;103370.16;5073595;28;20076;-66
2022/03/20 00:33:17;;;;;;;9.20;4.07;;;;;;;4.66;76.32;103360.59;5072459;28;20135;-66
2022/03/20 00:35:47;;;;;;;9.05;4.72;;;;;;;4.61;76.57;103360.59;5073707;28;20045;-66
2022/03/20 00:38:15;;;;;;;11.93;4.78;;;;;;;4.55;76.72;103353.66;5073689;28;20113;-66
2022/03/20 00:40:44;;;;;;;12.80;5.53;;;;;;;4.52;77.21;103348.41;5073813;28;20044;-66
2022/03/20 00:43:12;;;;;;;12.65;5.32;;;;;;;4.50;77.32;103344.97;5073610;28;20503;-66
2022/03/20 00:45:45;;;;;;;9.90;5.15;;;;;;;4.47;77.35;103338.88;5072811;28;20087;-66
2022/03/20 00:48:14;;;;;;;11.77;5.05;;;;;;;4.42;77.22;103338.88;5055991;28;20044;-66
2022/03/20 00:50:48;;;;;;;11.05;5.60;;;;;;;4.44;77.19;103341.47;5072692;28;20074;-66
2022/03/20 00:53:19;;;;;;;11.85;5.90;;;;;;;4.35;77.23;103331.91;5073159;28;20072;-66
2022/03/20 00:55:48;;;;;;;13.65;6.43;;;;;;;4.28;77.50;103332.78;5073269;28;20403;-66
2022/03/20 00:58:17;;;;;;;11.88;6.35;;;;;;;4.25;77.66;103320.59;5073353;28;20054;-66
2022/03/20 01:00:47;;;;;;;15.50;7.10;;;;;;;4.26;77.67;103309.31;5073211;28;20492;-66
2022/03/20 01:03:15;;;;;;;14.93;6.70;;;;;;;4.24;77.45;103308.47;5072078;28;20553;-66
2022/03/20 01:05:44;;;;;;;13.45;6.95;;;;;;;4.25;77.12;103314.53;5073070;28;20071;-66
2022/03/20 01:08:12;;;;;;;16.08;7.97;;;;;;;4.19;77.17;103305.84;5072659;28;20052;-66
2022/03/20 01:10:41;;;;;;;16.67;8.02;;;;;;;4.20;77.17;103309.34;5073074;28;20037;-66
2022/03/20 01:13:09;;;;;;;14.80;8.00;;;;;;;4.14;77.25;103310.19;5072945;28;20086;-66
2022/03/20 01:15:38;;;;;;;14.85;7.90;;;;;;;4.13;77.35;103310.19;5072958;28;20047;-66
2022/03/20 01:18:08;;;;;;;16.35;8.48;;;;;;;4.14;77.26;103307.56;5072850;28;20109;-66
2022/03/20 01:20:36;;;;;;;16.67;8.90;;;;;;;4.16;76.71;103305.84;5072732;28;20496;-66
2022/03/20 01:23:04;;;;;;;17.67;9.27;;;;;;;4.13;76.64;103302.38;5072645;28;20110;-66
2022/03/20 01:25:32;;;;;;;14.32;8.57;;;;;;;4.05;76.47;103307.59;5072800;28;20050;-66
2022/03/20 01:28:00;;;;;;;14.60;8.35;;;;;;;3.99;76.87;103298.00;5072771;28;20040;-66
2022/03/20 01:30:30;;;;;;;14.50;9.20;;;;;;;4.05;76.72;103289.34;5072638;28;20055;-66
2022/03/20 01:32:58;;;;;;;17.00;8.43;;;;;;;3.94;76.93;103293.66;5072752;28;20511;-66
2022/03/20 01:35:27;;;;;;;15.57;8.82;;;;;;;3.85;77.58;103287.56;5072870;28;20051;-66
2022/03/20 01:37:55;;;;;;;14.25;8.57;;;;;;;3.83;77.98;103281.50;5072120;28;20458;-66
2022/03/20 01:40:25;;;;;;;14.40;7.38;;;;;;;3.78;78.86;103278.00;5072235;28;20048;-66
2022/03/20 01:42:53;;;;;;;17.90;7.88;;;;;;;3.74;79.45;103271.06;5072467;28;20082;-66
2022/03/20 01:45:23;;;;;;;16.98;7.47;;;;;;;3.78;79.88;103269.34;5072416;28;20494;-66
2022/03/20 01:47:52;;;;;;;13.23;6.80;;;;;;;3.74;80.79;103260.66;5072252;28;20490;-66
2022/03/20 01:50:23;;;;;;;15.90;7.15;;;;;;;3.69;81.61;103264.97;5072521;28;20052;-66
2022/03/20 01:52:54;;;;;;;14.23;7.18;;;;;;;3.69;82.07;103257.16;5072119;28;20503;-66
2022/03/20 01:55:24;;;;;;;11.90;6.32;;;;;;;3.63;83.13;103255.41;5072484;28;20049;-66
2022/03/20 01:57:54;;;;;;;11.10;6.43;;;;;;;3.55;84.16;103241.50;5072330;28;20458;-66
2022/03/20 02:00:24;;;;;;;14.55;6.47;;;;;;;3.54;84.87;103248.47;5072073;28;20047;-66
2022/03/20 02:02:53;;;;;;;12.25;6.25;;;;;;;3.52;85.74;103246.72;5072272;28;20066;-66
2022/03/20 02:05:22;;;;;;;11.52;5.45;;;;;;;3.58;85.86;103243.25;5072030;28;20049;-66
2022/03/20 02:07:50;;;;;;;12.77;6.55;;;;;;;3.43;87.06;103231.94;5072248;28;20487;-66
2022/03/20 02:10:19;;;;;;;14.90;7.25;;;;;;;3.47;87.85;103225.88;5071080;28;20051;-66
2022/03/20 02:12:47;;;;;;;12.82;5.90;;;;;;;3.42;88.25;103222.38;5071885;28;20059;-66
2022/03/20 02:15:16;;;;;;;12.88;6.05;;;;;;;3.48;88.96;103222.41;5071814;28;20049;-66
2022/03/20 02:17:45;;;;;;;9.80;5.07;;;;;;;3.42;89.40;103211.97;5072052;28;20052;-66
2022/03/20 02:20:13;;;;;;;10.13;5.35;;;;;;;3.40;89.91;103221.53;5071944;28;20059;-66
2022/03/20 02:22:44;;;;;;;10.77;5.72;;;;;;;3.38;90.25;103210.22;5071969;28;20045;-66
2022/03/20 02:25:15;;;;;;;10.25;5.45;;;;;;;3.39;90.79;103209.38;5071754;28;20104;-66
2022/03/20 02:27:48;;;;;;;13.82;6.28;;;;;;;3.29;91.53;103207.63;5071766;28;20368;-66
2022/03/20 02:30:18;;;;;;;13.10;5.18;;;;;;;3.38;91.48;103198.13;5071971;28;20049;-66
2022/03/20 02:32:49;;;;;;;13.75;6.13;;;;;;;3.32;92.42;103182.47;5071904;28;20040;-66
2022/03/20 02:35:19;;;;;;;11.95;5.85;;;;;;;3.28;92.54;103187.69;5071711;28;20052;-66
2022/03/20 02:37:51;;;;;;;13.00;5.70;;;;;;;3.29;92.58;103179.00;5071906;28;20087;-66
2022/03/20 02:40:22;;;;;;;11.68;5.40;;;;;;;3.23;93.54;103179.84;5072187;28;20491;-66
2022/03/20 02:42:53;;;;;;;12.73;5.20;;;;;;;3.22;93.85;103170.31;5071770;28;20053;-66
2022/03/20 02:45:23;;;;;;;12.05;6.43;;;;;;;3.22;93.32;103173.78;5071811;28;20118;-66
2022/03/20 02:47:52;;;;;;;11.90;5.40;;;;;;;3.21;94.18;103176.38;5071549;28;20048;-66
2022/03/20 02:50:22;;;;;;;11.15;5.55;;;;;;;3.20;94.37;103166.84;5071261;28;20131;-67
2022/03/20 02:52:53;;;;;;;14.43;6.60;;;;;;;3.18;94.54;103160.78;5071591;28;20056;-66
2022/03/20 02:55:22;;;;;;;12.68;5.97;;;;;;;3.19;94.28;103150.38;5072165;28;20400;-66
2022/03/20 02:57:52;;;;;;;13.45;6.30;;;;;;;3.15;94.36;103152.94;5071630;28;20051;-66
2022/03/20 03:00:22;;;;;;;14.55;6.20;;;;;;;3.17;94.35;103149.47;5071717;28;20049;-66
2022/03/20 03:02:52;;;;;;;12.65;5.90;;;;;;;3.21;94.42;103139.97;5072381;28;20123;-66
2022/03/20 03:05:24;;;;;;;16.70;7.10;;;;;;;3.19;94.23;103142.56;5071232;28;20404;-66
2022/03/20 03:10:57;;;;;;;13.93;6.00;;;;;;;3.12;94.58;103127.81;5071546;28;20373;-66
2022/03/20 03:13:29;;;;;;;12.40;6.35;;;;;;;3.17;94.57;103122.63;5073599;28;20047;-66
2022/03/20 03:15:59;;;;;;;13.20;6.32;;;;;;;3.11;94.18;103128.69;5075518;28;20061;-66
2022/03/20 03:18:27;;;;;;;13.60;7.72;;;;;;;3.11;94.15;103123.47;5075108;28;20044;-67
2022/03/20 03:20:55;;;;;;;14.45;7.25;;;;;;;3.09;94.49;103132.13;5075108;28;20165;-66
2022/03/20 03:23:26;;;;;;;19.27;7.82;;;;;;;3.14;93.72;103123.47;5063113;28;20057;-66
2022/03/20 03:25:55;;;;;;;17.33;7.32;;;;;;;3.08;93.56;103118.28;5054959;28;20049;-66
2022/03/20 03:28:32;;;;;;;13.15;7.30;;;;;;;3.08;93.75;103126.09;5053626;28;20459;-66
2022/03/20 03:31:00;;;;;;;17.08;7.60;;;;;;;3.03;94.02;103122.59;5054936;28;20041;-67
2022/03/20 03:33:28;;;;;;;14.45;7.63;;;;;;;3.03;93.85;103118.25;5054810;28;20079;-65
2022/03/20 03:35:57;;;;;;;20.05;8.65;;;;;;;3.03;92.84;103114.78;5053495;28;20353;-66
2022/03/20 03:38:30;;;;;;;16.05;8.15;;;;;;;3.01;93.03;103120.00;5054836;28;20549;-66
2022/03/20 03:40:58;;;;;;;15.45;8.48;;;;;;;3.04;92.50;103117.41;5054293;28;20061;-65
2022/03/20 03:43:27;;;;;;;17.05;7.82;;;;;;;3.05;92.89;103107.84;5054593;28;20040;-65
2022/03/20 03:45:56;;;;;;;15.15;8.25;;;;;;;3.00;93.16;103105.25;5054715;28;20473;-66
2022/03/20 03:48:24;;;;;;;17.73;8.50;;;;;;;3.00;93.14;103097.44;5054395;28;20098;-65
2022/03/20 03:50:54;;;;;;;18.77;8.68;;;;;;;3.00;92.55;103104.38;5054716;28;20048;-66
2022/03/20 03:53:22;;;;;;;17.35;8.73;;;;;;;3.04;92.34;103111.31;5054323;28;20061;-65
2022/03/20 03:55:51;;;;;;;19.00;9.68;;;;;;;3.03;92.57;103109.59;5054364;28;20041;-65
2022/03/20 03:58:19;;;;;;;17.75;8.88;;;;;;;3.09;92.13;103099.19;5054537;28;20041;-66
2022/03/20 04:00:48;;;;;;;17.55;8.95;;;;;;;3.09;91.30;103090.53;5054398;28;20489;-65
2022/03/20 04:03:16;;;;;;;16.85;9.23;;;;;;;3.07;91.68;103095.75;5054462;28;20102;-66
2022/03/20 04:05:47;;;;;;;16.13;9.18;;;;;;;3.08;91.13;103088.78;5054151;28;20141;-65
2022/03/20 04:08:16;;;;;;;16.48;9.50;;;;;;;3.14;90.72;103089.69;5054271;28;20048;-65
2022/03/20 04:10:45;;;;;;;20.88;9.50;;;;;;;3.16;90.23;103084.47;5054087;28;20048;-65
2022/03/20 04:13:14;;;;;;;18.10;9.40;;;;;;;3.15;89.07;103081.03;5054288;28;20045;-67
2022/03/20 04:15:43;;;;;;;16.50;9.80;;;;;;;3.14;89.64;103073.22;5053744;28;20043;-65
2022/03/20 04:18:12;;;;;;;20.23;9.07;;;;;;;3.15;89.93;103065.41;5053854;28;20049;-65
2022/03/20 04:20:40;;;;;;;17.50;8.48;;;;;;;3.14;89.62;103071.47;5054148;28;20491;-65
2022/03/20 04:25:54;;;;;;;18.23;9.93;;;;;;;3.20;88.15;103058.50;5053306;28;20041;-65
2022/03/20 04:28:24;;;;;;;17.95;8.93;;;;;;;3.28;87.92;103045.47;5053915;28;20069;-65
2022/03/20 04:30:52;;;;;;;17.23;9.27;;;;;;;3.27;87.23;103048.06;5053289;28;20044;-65
2022/03/20 04:33:20;;;;;;;15.88;8.90;;;;;;;3.24;87.82;103029.88;5053345;28;20041;-65
2022/03/20 04:35:49;;;;;;;21.88;9.48;;;;;;;3.22;87.06;103022.94;5053715;28;20045;-65
2022/03/20 04:38:21;;;;;;;17.33;9.88;;;;;;;3.23;86.72;103023.78;5053780;28;20071;-66
2022/03/20 04:40:49;;;;;;;16.55;9.68;;;;;;;3.23;86.79;103029.00;5053468;28;20766;-66
2022/03/20 04:43:18;;;;;;;18.80;10.65;;;;;;;3.32;86.23;103034.22;5053595;28;20071;-66
2022/03/20 04:45:47;;;;;;;17.00;10.40;;;;;;;3.32;86.17;103033.34;5053239;28;20037;-66
2022/03/20 04:59:21;;;;;;;18.88;10.15;;;;;;;3.47;82.22;103038.53;5053467;28;20053;-65
2022/03/20 05:01:50;;;;;;;18.13;9.98;;;;;;;3.49;81.65;103036.81;5053199;28;20571;-66
2022/03/20 05:04:19;;;;;;;17.27;9.27;;;;;;;3.53;80.97;103025.53;5053027;28;20091;-66
2022/03/20 05:06:48;;;;;;;21.55;9.95;;;;;;;3.55;80.84;103026.41;5052485;28;20083;-58
2022/03/20 05:14:58;;;;;;;20.00;9.95;;;;;;;3.59;79.53;103008.19;5053348;28;20156;-66
2022/03/20 05:17:28;;;;;;;20.08;10.43;;;;;;;3.64;79.89;103009.91;5053011;28;20041;-66
2022/03/20 05:19:56;;;;;;;17.52;9.63;;;;;;;3.55;80.38;103009.94;5052281;28;20059;-66
2022/03/20 05:22:24;;;;;;;19.25;9.80;;;;;;;3.59;78.75;103009.06;5052743;28;20443;-66
2022/03/20 05:24:53;;;;;;;20.25;10.65;;;;;;;3.57;79.08;103009.91;5052696;28;20048;-65
2022/03/20 05:27:21;;;;;;;17.00;10.48;;;;;;;3.51;79.03;103009.06;5052934;28;20037;-65
2022/03/20 05:29:49;;;;;;;19.10;9.90;;;;;;;3.56;78.40;103006.47;5052775;28;20048;-65
2022/03/20 05:32:17;;;;;;;17.40;9.73;;;;;;;3.51;78.33;103000.38;5051599;28;20167;-65
2022/03/20 05:34:47;;;;;;;18.83;10.38;;;;;;;3.52;78.68;103002.13;5052731;28;20049;-65
2022/03/20 05:37:15;;;;;;;17.63;9.57;;;;;;;3.54;77.64;102996.06;5052288;28;20534;-57
2022/03/20 05:39:45;;;;;;;18.08;10.32;;;;;;;3.52;77.49;103004.72;5052186;28;20114;-57
2022/03/20 05:42:14;;;;;;;20.42;10.88;;;;;;;3.56;77.71;102996.06;5052399;28;20041;-57
2022/03/20 05:44:44;;;;;;;22.58;10.88;;;;;;;3.50;77.17;103004.72;5052354;28;20504;-57
2022/03/20 05:47:12;;;;;;;19.23;10.40;;;;;;;3.55;77.14;103000.38;5052154;28;20049;-57
2022/03/20 05:49:40;;;;;;;27.52;11.05;;;;;;;3.53;77.25;102999.53;5052254;28;20527;-56
2022/03/20 05:52:09;;;;;;;21.90;11.00;;;;;;;3.60;76.72;102994.28;5052029;28;20052;-57
2022/03/20 05:54:37;;;;;;;19.38;10.35;;;;;;;3.60;76.08;102996.91;5051837;28;20057;-57
2022/03/20 05:59:53;;;;;;;22.52;11.15;;;;;;;3.59;75.64;102988.22;5051927;28;20045;-58
2022/03/20 06:02:22;;;;;;;19.15;10.57;;;;;;;3.59;75.81;102987.38;5051588;28;20063;-57
2022/03/20 06:04:51;;;;;;;21.27;11.43;;;;;;;3.66;74.59;102991.69;5052126;28;20052;-58
2022/03/20 06:07:21;;;;;;;17.55;10.95;;;;;;;3.71;73.90;102988.22;5051654;28;20059;-57
2022/03/20 06:09:49;;;;;;;16.63;10.05;;;;;;;3.59;74.33;102992.59;5051781;28;20534;-57
2022/03/20 06:12:17;;;;;;;19.23;10.63;;;;;;;3.68;74.03;103002.94;5051666;28;20049;-57
2022/03/20 06:14:45;;;;;;;20.15;11.05;;;;;;;3.58;73.97;102993.44;5051860;28;20432;-57
2022/03/20 06:17:14;;;;;;;17.38;10.18;;;;;;;3.62;73.86;102983.00;5051911;28;20492;-57
2022/03/20 06:19:42;;;;;;;18.30;9.82;;;;;;;3.71;73.39;102984.75;5051824;28;20043;-58
2022/03/20 06:22:10;;;;;;;21.45;11.40;;;;;;;3.70;73.27;102983.88;5050524;28;20057;-57
2022/03/20 06:24:39;;;;;;;18.63;10.30;;;;;;;3.67;72.62;102973.47;5051941;28;20048;-57
2022/03/20 06:27:07;;;;;;;19.95;10.77;;;;;;;3.68;72.60;102979.53;5051591;28;20373;-57
2022/03/20 06:29:36;;;;;;;19.65;11.82;;;;;;;3.76;72.18;102972.56;5051834;28;20053;-58
2022/03/20 06:32:05;;;;;;;22.45;11.63;;;;;;;3.74;71.73;102956.09;5051602;28;20048;-58
2022/03/20 06:34:34;;;;;;;19.77;10.15;;;;;;;3.78;72.10;102956.97;5051078;28;20441;-57
2022/03/20 06:37:02;;;;;;;21.65;11.38;;;;;;;3.80;70.83;102956.06;5051581;28;20041;-57
2022/03/20 06:39:30;;;;;;;18.42;10.82;;;;;;;3.84;71.16;102944.78;5051604;28;20052;-57
2022/03/20 06:42:00;;;;;;;17.67;10.73;;;;;;;3.77;71.53;102937.00;5051461;28;20095;-57
2022/03/20 06:44:28;;;;;;;18.90;10.98;;;;;;;3.88;70.57;102935.22;5051002;28;20516;-57
2022/03/20 06:46:56;;;;;;;19.73;11.27;;;;;;;3.85;70.98;102930.03;5051009;28;20045;-57
2022/03/20 06:49:24;;;;;;;21.02;11.45;;;;;;;3.89;70.88;102927.41;5055458;28;20530;-57
2022/03/20 06:51:52;;;;;;;20.13;11.13;;;;;;;3.85;70.73;102915.28;5055631;28;20047;-57
2022/03/20 06:54:20;;;;;;;18.60;10.90;;;;;;;3.84;70.44;102902.28;5055599;28;20060;-57
2022/03/20 06:56:48;;;;;;;21.63;11.60;;;;;;;3.87;70.54;102899.66;5055403;28;20045;-57
2022/03/20 06:59:18;;;;;;;19.80;12.00;;;;;;;3.83;69.46;102895.31;5055689;28;20060;-57
2022/03/20 07:01:47;;;;;;;22.10;12.07;;;;;;;3.88;69.97;102881.41;5055285;28;20083;-57
2022/03/20 07:04:15;;;;;;;19.95;10.93;;;;;;;3.88;70.08;102881.41;5055492;28;20045;-57
2022/03/20 07:06:43;;;;;;;19.75;10.63;;;;;;;3.86;69.80;102883.19;5055345;28;20056;-57
2022/03/20 07:09:11;;;;;;;23.27;11.75;;;;;;;3.86;69.79;102896.19;5055399;28;20036;-66
2022/03/20 07:11:39;;;;;;;19.65;11.65;;;;;;;3.87;68.81;102910.94;5055218;28;20053;-66
2022/03/20 07:14:07;;;;;;;22.63;11.23;;;;;;;3.91;68.76;102908.31;5055233;28;20060;-65
2022/03/20 07:16:38;;;;;;;18.92;11.32;;;;;;;3.98;68.38;102915.22;5055348;28;20395;-65
2022/03/20 07:19:08;;;;;;;18.08;11.30;;;;;;;4.04;68.20;102923.88;5055244;28;20075;-65
2022/03/20 07:21:36;;;;;;;21.33;11.85;;;;;;;4.03;67.94;102929.94;5055125;28;20094;-65
2022/03/20 07:24:05;;;;;;;23.92;13.48;;;;;;;4.11;67.48;102932.53;5055069;28;20095;-65
2022/03/20 07:29:31;;;;;;;21.52;12.50;;;;;;;4.21;65.40;102910.78;5055079;28;20060;-65
2022/03/20 07:32:02;;;;;;;21.83;12.35;;;;;;;4.34;64.70;102892.47;5054881;28;20045;-65
2022/03/20 07:34:32;;;;;;;22.53;12.60;;;;;;;4.36;64.43;102885.50;5054750;28;20048;-67
2022/03/20 07:37:00;;;;;;;24.13;12.80;;;;;;;4.51;64.34;102884.53;5055198;28;20511;-66
2022/03/20 07:39:29;;;;;;;25.08;12.35;;;;;;;4.49;63.65;102881.09;5054895;28;20047;-66
2022/03/20 07:41:59;;;;;;;22.05;13.45;;;;;;;4.56;62.27;102875.81;5054750;28;20064;-65
2022/03/20 07:44:29;;;;;;;26.73;13.40;;;;;;;4.68;61.76;102855.75;5054578;28;20053;-65
2022/03/20 07:46:57;;;;;;;21.20;12.15;;;;;;;4.78;60.95;102873.03;5054689;28;20052;-65
2022/03/20 07:49:28;;;;;;;20.30;12.02;;;;;;;4.91;60.60;102871.19;5054732;28;20087;-64
2022/03/20 07:51:58;;;;;;;24.33;11.88;;;;;;;5.00;60.15;102863.25;5054768;28;20396;-67
2022/03/20 07:54:27;;;;;;;24.27;13.15;;;;;;;5.10;58.75;102858.84;5054426;28;20083;-65
2022/03/20 07:56:56;;;;;;;26.48;13.30;;;;;;;5.25;58.38;102856.06;5053250;28;20057;-65
2022/03/20 07:59:24;;;;;;;23.73;13.38;;;;;;;5.28;58.46;102854.31;5054293;28;20053;-66
2022/03/20 08:01:52;;;;;;;23.38;13.40;;;;;;;5.17;58.40;102859.66;5054092;28;20098;-65
2022/03/20 08:04:20;;;;;;;20.85;12.02;;;;;;;5.22;57.82;102871.75;5053909;28;20084;-66
2022/03/20 08:06:50;;;;;;;21.92;13.18;;;;;;;5.15;57.42;102857.03;5053651;28;20049;-57
2022/03/20 08:09:18;;;;;;;21.38;12.27;;;;;;;5.15;56.96;102841.38;5054047;28;20047;-58
2022/03/20 08:11:46;;;;;;;20.40;12.27;;;;;;;5.27;56.73;102818.66;5054176;28;20048;-58
2022/03/20 08:14:15;;;;;;;22.85;13.70;;;;;;;5.22;56.76;102816.09;5054017;28;20049;-58
2022/03/20 08:16:43;;;;;;;20.73;13.48;;;;;;;5.29;56.26;102816.91;5053942;28;20056;-58
2022/03/20 08:19:12;;;;;;;22.45;12.88;;;;;;;5.32;54.94;102806.44;5054001;28;20094;-58
2022/03/20 08:21:41;;;;;;;22.75;13.07;;;;;;;5.28;53.68;102795.16;5054004;28;20044;-58
2022/03/20 08:24:12;;;;;;;21.80;12.50;;;;;;;5.41;53.50;102812.41;5053885;28;20077;-58
2022/03/20 08:26:41;;;;;;;23.33;12.88;;;;;;;5.42;53.49;102798.47;5054063;28;20052;-58
2022/03/20 08:29:10;;;;;;;27.60;13.63;;;;;;;5.38;53.56;102795.91;5053804;28;20076;-58
2022/03/20 08:31:43;;;;;;;22.58;12.75;;;;;;;5.52;52.65;102793.13;5053640;28;20048;-58
2022/03/20 08:34:13;;;;;;;22.90;13.13;;;;;;;5.64;51.74;102779.91;5053652;28;20053;-57
2022/03/20 08:36:41;;;;;;;23.00;13.00;;;;;;;5.73;51.16;102768.50;5053884;28;20068;-59
2022/03/20 08:39:11;;;;;;;23.30;13.70;;;;;;;6.00;51.82;102756.81;5053884;28;20526;-58
2022/03/20 08:41:40;;;;;;;23.83;12.90;;;;;;;6.13;51.17;102767.91;5053493;28;20107;-57
2022/03/20 08:44:08;;;;;;;22.42;13.55;;;;;;;6.25;49.97;102765.09;5053460;28;20508;-57
2022/03/20 08:46:37;;;;;;;25.92;13.88;;;;;;;6.34;51.30;102758.00;5053287;28;20330;-58
2022/03/20 08:49:07;;;;;;;24.77;14.05;;;;;;;6.36;51.19;102743.19;5053399;28;20053;-57
2022/03/20 08:51:38;;;;;;;24.20;13.55;;;;;;;6.39;49.41;102745.72;5053240;28;20041;-58
2022/03/20 08:54:06;;;;;;;23.08;13.00;;;;;;;6.51;49.40;102749.88;5053074;28;20404;-57
2022/03/20 08:56:36;;;;;;;22.98;13.30;;;;;;;6.42;49.70;102740.44;5053260;28;20044;-58
2022/03/20 08:59:04;;;;;;;24.70;13.95;;;;;;;6.48;49.34;102747.34;5052159;28;20069;-59
2022/03/20 09:01:32;;;;;;;21.80;13.35;;;;;;;6.55;48.31;102741.09;5053339;28;20053;-58
2022/03/20 09:04:00;;;;;;;21.00;12.85;;;;;;;6.58;48.99;102735.81;5053253;28;20069;-59
2022/03/20 09:06:29;;;;;;;23.27;13.23;;;;;;;6.60;49.76;102741.88;5052959;28;20041;-59
2022/03/20 09:08:57;;;;;;;21.35;13.10;;;;;;;6.52;48.38;102730.72;5052797;28;20397;-58
2022/03/20 09:11:25;;;;;;;22.42;13.45;;;;;;;6.56;48.57;102741.06;5052522;28;20838;-58
2022/03/20 09:13:54;;;;;;;21.52;12.57;;;;;;;6.59;49.11;102738.41;5052930;28;20040;-58
2022/03/20 09:19:08;;;;;;;22.20;13.70;;;;;;;6.78;48.15;102735.44;5053021;28;20045;-59
2022/03/20 09:21:38;;;;;;;24.10;13.20;;;;;;;6.85;48.68;102733.59;5052807;28;20045;-60
2022/03/20 09:24:07;;;;;;;23.23;14.48;;;;;;;6.81;47.67;102737.16;5052794;28;20056;-59
2022/03/20 09:26:36;;;;;;;21.45;13.95;;;;;;;6.85;48.41;102728.34;5052876;28;20476;-66
2022/03/20 09:29:05;;;;;;;25.73;13.82;;;;;;;6.86;47.83;102730.94;5054113;28;20048;-59
2022/03/20 09:31:34;;;;;;;23.00;13.95;;;;;;;6.86;48.09;102723.09;5053366;28;20051;-58
2022/03/20 09:34:08;;;;;;;22.88;13.32;;;;;;;6.86;48.28;102724.84;5053771;28;20128;-67
2022/03/20 09:36:37;;;;;;;22.10;14.07;;;;;;;6.86;48.00;102723.09;5055220;28;20049;-59
2022/03/20 09:39:06;;;;;;;23.17;13.65;;;;;;;7.01;48.28;102728.88;5052552;28;20045;-58
2022/03/20 09:41:34;;;;;;;22.02;13.30;;;;;;;7.49;47.26;102728.75;5052846;28;20395;-66
2022/03/20 09:44:06;;;;;;;23.67;14.73;;;;;;;7.69;47.50;102722.19;5052458;28;20507;-66
2022/03/20 09:46:35;;;;;;;22.70;13.80;;;;;;;7.91;46.85;102706.88;5052466;28;20037;-66
2022/03/20 09:49:07;;;;;;;29.30;15.85;;;;;;;7.89;46.22;102693.78;5052252;28;20060;-66
2022/03/20 09:51:35;;;;;;;25.38;14.63;;;;;;;8.03;46.21;102679.47;5052172;28;20484;-66
2022/03/20 09:54:04;;;;;;;24.52;14.80;;;;;;;8.50;46.01;102685.28;5051944;28;20088;-66
2022/03/20 09:56:33;;;;;;;25.73;14.63;;;;;;;8.53;45.07;102693.06;5052151;28;20045;-59
2022/03/20 09:59:02;;;;;;;22.85;13.52;;;;;;;8.53;44.53;102700.91;5052156;28;20041;-59
2022/03/20 10:01:33;;;;;;;27.42;15.00;;;;;;;8.69;44.63;102684.78;5052351;28;20056;-59
2022/03/20 10:04:10;;;;;;;25.13;14.60;;;;;;;9.14;43.00;102690.44;5052049;28;20051;-66
2022/03/20 10:06:39;;;;;;;25.15;14.80;;;;;;;9.37;43.66;102693.31;5052240;28;20049;-66
2022/03/20 10:09:10;;;;;;;25.17;14.85;;;;;;;9.60;43.51;102682.09;5052234;28;20582;-66
2022/03/20 10:11:41;;;;;;;24.27;14.20;;;;;;;9.66;41.77;102679.25;5051724;28;20447;-59
2022/03/20 10:14:12;;;;;;;23.75;16.17;;;;;;;9.59;41.73;102698.75;5052010;28;20041;-59
2022/03/20 10:16:43;;;;;;;27.20;16.02;;;;;;;9.76;42.00;102700.81;5051756;28;20041;-59
2022/03/20 10:19:32;;;;;;;25.83;15.10;;;;;;;10.04;42.02;102706.06;5052211;28;20052;-59
2022/03/20 10:22:04;;;;;;;24.95;14.98;;;;;;;10.03;41.10;102692.97;5049257;28;20475;-66
2022/03/20 10:24:34;;;;;;;25.10;15.93;;;;;;;10.04;41.66;102684.19;5051821;28;20410;-58
2022/03/20 10:27:11;;;;;;;24.90;15.00;;;;;;;10.19;41.40;102699.41;5051579;28;20503;-59
2022/03/20 10:29:48;;;;;;;23.88;15.05;;;;;;;10.15;41.53;102688.13;5052714;28;20132;-67
2022/03/20 10:32:18;;;;;;;24.58;15.90;;;;;;;10.05;41.62;102688.50;5054231;28;20116;-67
2022/03/20 10:34:56;;;;;;;;;;;;;;;9.86;42.52;102690.88;5054819;28;20094;-66
2022/03/20 10:37:45;;;;;;;23.88;15.52;;;;;;;10.09;42.15;102703.25;5055715;28;19921;-59
2022/03/20 10:40:16;;;;;;;29.17;16.08;;;;;;;10.17;40.94;102696.00;5052931;28;20068;-67
2022/03/20 10:43:06;;;;;;;27.17;16.55;;;;;;;10.19;41.43;102699.41;5052325;28;20669;-67
2022/03/20 10:45:55;;;;;;;26.60;16.33;;;;;;;10.41;41.96;102701.34;5086451;28;20094;-66
2022/03/20 10:48:33;;;;;;;27.25;16.02;;;;;;;10.32;40.47;102707.72;5051518;28;20033;-59
2022/03/20 10:51:02;;;;;;;27.70;16.95;;;;;;;10.07;41.17;102710.34;5053891;28;20403;-67
2022/03/20 10:53:30;;;;;;;25.35;16.70;;;;;;;10.08;42.36;102714.72;5052944;28;20049;-59
2022/03/20 10:56:05;;;;;;;26.35;16.70;;;;;;;9.71;41.06;102702.78;5054282;28;20044;-59
2022/03/20 10:58:37;;;;;;;27.20;16.85;;;;;;;9.44;42.13;102697.47;5052814;28;20057;-58
2022/03/20 11:01:07;;;;;;;26.90;15.93;;;;;;;9.38;42.23;102695.00;5054811;28;20071;-58
2022/03/20 11:03:39;;;;;;;26.77;16.23;;;;;;;9.48;43.07;102688.59;5051439;28;20048;-59
2022/03/20 11:06:08;;;;;;;25.00;17.10;;;;;;;9.57;42.93;102693.56;5051924;28;20412;-67
2022/03/20 11:08:38;;;;;;;28.80;16.70;;;;;;;9.51;42.36;102688.47;5056686;28;20458;-68
2022/03/20 11:11:10;;;;;;;30.70;15.55;;;;;;;9.49;42.22;102687.69;5052652;28;20073;-67
2022/03/20 11:13:45;;;;;;;27.80;16.65;;;;;;;9.28;42.64;102679.56;5053023;28;20127;-59
2022/03/20 11:16:14;;;;;;;27.30;16.20;;;;;;;9.20;42.95;102694.66;5052607;28;20056;-67
2022/03/20 11:18:46;;;;;;;27.17;17.15;;;;;;;9.28;42.96;102695.31;5051814;28;20047;-59
2022/03/20 11:21:17;;;;;;;26.98;16.25;;;;;;;9.33;43.40;102691.69;5054428;28;20047;-68
2022/03/20 11:23:48;;;;;;;27.50;17.75;;;;;;;9.32;43.50;102684.72;5055171;28;20392;-68
2022/03/20 11:26:19;;;;;;;29.17;19.02;;;;;;;9.10;43.70;102682.72;5052264;28;20056;-68
2022/03/20 11:28:51;;;;;;;27.15;16.15;;;;;;;9.08;43.70;102680.16;5056679;28;20083;-68
2022/03/20 11:31:19;;;;;;;27.30;16.63;;;;;;;9.14;44.27;102687.81;5051498;28;20052;-56
2022/03/20 11:33:49;;;;;;;29.85;16.33;;;;;;;9.10;44.55;102686.19;5053415;28;20033;-68
2022/03/20 11:36:18;;;;;;;27.38;17.70;;;;;;;9.15;44.19;102688.72;5055725;28;20119;-59
2022/03/20 11:39:09;;;;;;;26.30;17.00;;;;;;;8.96;44.35;102694.47;5055607;28;20045;-68
2022/03/20 11:41:37;;;;;;;27.58;17.02;;;;;;;9.10;44.66;102688.81;5057215;28;20052;-68
2022/03/20 11:44:20;;;;;;;25.35;16.60;;;;;;;8.96;45.16;102693.63;5056746;28;20057;-68
2022/03/20 11:47:19;;;;;;;26.25;17.30;;;;;;;9.01;44.62;102688.25;5054431;28;20055;-58
2022/03/20 11:50:15;;;;;;;27.38;16.95;;;;;;;8.86;44.72;102685.19;5056333;28;20049;-69
2022/03/20 11:53:00;;;;;;;27.15;17.17;;;;;;;8.85;45.14;102688.69;5056513;28;20060;-58
2022/03/20 11:55:34;;;;;;;26.73;16.58;;;;;;;8.99;46.13;102684.81;5054193;28;20457;-58
2022/03/20 11:58:05;;;;;;;27.58;16.67;;;;;;;8.95;45.43;102686.66;5054789;28;20056;-68
2022/03/20 12:00:35;;;;;;;26.92;16.52;;;;;;;9.07;45.41;102685.44;5057358;28;20372;-58
2022/03/20 12:03:37;;;;;;;30.67;18.48;;;;;;;9.09;45.54;102686.25;5054294;28;20077;-68
2022/03/20 12:06:37;;;;;;;27.98;17.75;;;;;;;9.13;45.88;102672.13;5057563;28;20059;-57